Terminal Aerodrome Forecast
Issued by NWS Albany, NY

Home | Current Version | Previous Version | Text Only | Print | Product List | Glossary On
Versions: 1 2 3 4 5 6 7 8 9 10 11 12 13 14 15 16 17 18 19 20 21 22 23 24
000
FTUS41 KALY 241400 AAB
TAFALB
TAF AMD
KALB 241412Z 2414/2512 18005KT P6SM VCSH SCT004 OVC020
      TEMPO 2414/2416 18010G20KT
     FM241700 18015G25KT P6SM BKN020
     FM250200 20012G22KT P6SM SCT025 BKN060
     FM250400 24008KT P6SM SCT070=

USA.gov is the U.S. government's official web portal to all federal, state and local government web resources and services.